San Diego, California
Traffic Map
Current Weather Conditions
San Diego, California
Overcast
Overcast
17°
Feels Like: 17°
Wind Chill: 17° Ceiling: 2400
Heat Index: 17° Visibility: 10mi
Dew Point: 11° Wind: 7mph
Humidity: 70% Direction: 180° (S)
Pressure: 29.92in Gusts: 0mph
Raw Report DataKSAN 180851Z 18006KT 10SM OVC024 17/11 A2992 RMK AO2 SLP130 T01670111 56006
Traffic Incident Summary
Active as of:
Severity:
Category:
InformationThere was an issue retrieving the traffic information for this location. Please try a different location or try again shortly.
Advertisements
At Last! Intellicast now available for iPhone and Android